Time;durP1;ratioP1;P1;durP2;ratioP2;P2;SDS_P1;SDS_P2;PMS_P1;PMS_P2;Temp;Humidity;BMP_temperature;BMP_pressure;BME280_temperature;BME280_humidity;BME280_pressure;Samples;Min_cycle;Max_cycle;Signal;HPM_P1;HPM_P2
2024/03/20 00:01:00;;;;;;;3.58;2.15;;;21.70;58.80;;;;;;4972668;28;88486;-64
2024/03/20 00:03:27;;;;;;;5.00;2.45;;;21.70;58.80;;;;;;4972100;28;88741;-65
2024/03/20 00:05:54;;;;;;;4.82;2.28;;;21.70;58.80;;;;;;4972054;28;87490;-63
2024/03/20 00:08:20;;;;;;;3.88;2.13;;;21.70;58.90;;;;;;4962962;28;87674;-64
2024/03/20 00:10:46;;;;;;;5.07;2.35;;;21.70;58.80;;;;;;4952144;28;87371;-64
2024/03/20 00:13:12;;;;;;;4.43;2.10;;;21.70;58.70;;;;;;4952952;28;89211;-65
2024/03/20 00:15:40;;;;;;;4.75;2.03;;;21.60;58.70;;;;;;4954561;28;87404;-68
2024/03/20 00:18:06;;;;;;;4.32;2.00;;;21.60;58.70;;;;;;4952248;28;87060;-67
2024/03/20 00:20:32;;;;;;;3.60;2.03;;;21.70;58.70;;;;;;4953353;28;88114;-63
2024/03/20 00:22:58;;;;;;;5.18;2.40;;;21.60;58.70;;;;;;4954052;28;87826;-67
2024/03/20 00:25:25;;;;;;;3.88;1.67;;;21.60;58.60;;;;;;4952399;28;88291;-64
2024/03/20 00:27:51;;;;;;;3.78;1.90;;;21.60;58.70;;;;;;4964082;28;87557;-64
2024/03/20 00:30:17;;;;;;;3.72;1.98;;;21.60;58.80;;;;;;4973018;28;88245;-64
2024/03/20 00:32:43;;;;;;;4.47;1.80;;;21.60;58.80;;;;;;4972070;28;87362;-66
2024/03/20 00:35:25;;;;;;;4.38;1.73;;;21.60;58.80;;;;;;4971850;28;87276;-65
2024/03/20 00:37:52;;;;;;;3.40;1.90;;;21.60;58.80;;;;;;4973613;28;87633;-65
2024/03/20 00:40:18;;;;;;;3.90;1.88;;;21.60;58.70;;;;;;4971165;28;87728;-64
2024/03/20 00:42:44;;;;;;;4.72;1.98;;;21.60;58.60;;;;;;4971278;28;88665;-67
2024/03/20 00:45:11;;;;;;;4.75;2.00;;;21.60;58.60;;;;;;4961395;28;87406;-63
2024/03/20 00:47:36;;;;;;;3.30;1.70;;;21.60;58.70;;;;;;4968369;28;87604;-67
2024/03/20 00:50:02;;;;;;;4.57;2.25;;;21.60;58.70;;;;;;4951916;28;88599;-67
2024/03/20 00:52:28;;;;;;;4.60;1.95;;;21.50;58.60;;;;;;4951406;28;90173;-64
2024/03/20 00:54:53;;;;;;;3.55;1.77;;;21.50;58.60;;;;;;4954092;28;86983;-65
2024/03/20 00:57:19;;;;;;;4.10;2.08;;;21.50;58.50;;;;;;4952753;28;87229;-64
2024/03/20 00:59:45;;;;;;;2.83;1.50;;;21.50;58.30;;;;;;4953948;28;88134;-64
2024/03/20 01:02:12;;;;;;;3.33;2.22;;;21.50;58.50;;;;;;4951361;28;87778;-63
2024/03/20 01:04:39;;;;;;;4.50;2.03;;;21.50;58.50;;;;;;4951804;28;87352;-67
2024/03/20 01:07:05;;;;;;;4.25;2.17;;;21.50;58.60;;;;;;4951821;28;86936;-66
2024/03/20 01:09:31;;;;;;;4.88;2.38;;;21.50;58.60;;;;;;4953444;28;87764;-65
2024/03/20 01:11:56;;;;;;;5.38;2.03;;;21.50;58.50;;;;;;4952204;28;88945;-65
2024/03/20 01:14:22;;;;;;;4.68;1.92;;;21.50;58.50;;;;;;4950528;28;88516;-64
2024/03/20 01:16:49;;;;;;;3.45;1.90;;;21.50;58.70;;;;;;4951337;28;87707;-66
2024/03/20 01:19:15;;;;;;;4.53;2.42;;;21.50;58.50;;;;;;4952355;28;87661;-65
2024/03/20 01:21:40;;;;;;;2.53;1.35;;;21.50;58.60;;;;;;4953738;28;87027;-64
2024/03/20 01:24:06;;;;;;;5.95;2.90;;;21.50;58.50;;;;;;4953959;28;87150;-64
2024/03/20 01:26:33;;;;;;;5.22;2.63;;;21.40;59.20;;;;;;4945564;28;87659;-63
2024/03/20 01:28:59;;;;;;;2.80;2.08;;;21.50;58.50;;;;;;4950264;28;88229;-65
2024/03/20 01:31:25;;;;;;;4.07;2.08;;;21.40;58.60;;;;;;4951886;28;87740;-64
2024/03/20 01:33:51;;;;;;;3.40;2.00;;;21.50;58.60;;;;;;4951070;28;86954;-64
2024/03/20 01:36:17;;;;;;;4.05;2.00;;;21.40;58.70;;;;;;4953808;28;87021;-64
2024/03/20 01:38:42;;;;;;;3.50;1.70;;;21.40;58.40;;;;;;4951422;28;89177;-65
2024/03/20 01:41:08;;;;;;;3.30;1.70;;;21.40;58.50;;;;;;4950409;28;88718;-65
2024/03/20 01:43:37;;;;;;;3.17;1.63;;;21.40;58.40;;;;;;4968924;28;87579;-63
2024/03/20 01:46:29;;;;;;;4.50;1.90;;;21.40;58.50;;;;;;4971938;28;87431;-65
2024/03/20 01:48:55;;;;;;;3.88;2.20;;;21.40;58.40;;;;;;4969714;28;89522;-65
2024/03/20 01:51:21;;;;;;;2.47;1.67;;;21.40;58.40;;;;;;4970384;28;88838;-65
2024/03/20 01:53:48;;;;;;;3.40;1.67;;;21.40;58.50;;;;;;4971340;28;87049;-64
2024/03/20 01:56:15;;;;;;;3.40;1.98;;;21.40;58.40;;;;;;4971019;28;86966;-63
2024/03/20 01:58:40;;;;;;;4.95;1.95;;;21.40;58.40;;;;;;4969981;28;89848;-63
2024/03/20 02:01:06;;;;;;;3.22;2.05;;;21.30;58.30;;;;;;4971385;28;87326;-64
2024/03/20 02:03:31;;;;;;;3.60;1.80;;;21.30;58.40;;;;;;4972529;28;88794;-63
2024/03/20 02:05:57;;;;;;;3.55;2.10;;;21.40;58.40;;;;;;4964173;28;87458;-63
2024/03/20 02:08:24;;;;;;;2.80;1.77;;;21.30;58.20;;;;;;4969572;28;89158;-64
2024/03/20 02:10:50;;;;;;;3.58;1.63;;;21.30;58.30;;;;;;4968457;28;88791;-64
2024/03/20 02:13:16;;;;;;;3.10;1.88;;;21.30;58.30;;;;;;4969887;28;87040;-65
2024/03/20 02:15:41;;;;;;;3.70;1.70;;;21.30;58.20;;;;;;4970495;28;87044;-65
2024/03/20 02:18:08;;;;;;;2.42;1.65;;;21.30;58.20;;;;;;4968740;28;89596;-64
2024/03/20 02:20:34;;;;;;;3.45;1.83;;;21.30;58.30;;;;;;4968948;28;88610;-64
2024/03/20 02:23:00;;;;;;;3.38;1.90;;;21.30;58.20;;;;;;4969910;28;87468;-64
2024/03/20 02:25:30;;;;;;;5.28;1.83;;;21.30;58.20;;;;;;4960688;28;87876;-67
2024/03/20 02:27:57;;;;;;;5.95;1.98;;;21.30;58.20;;;;;;4970527;28;89268;-64
2024/03/20 02:30:23;;;;;;;2.75;1.83;;;21.30;58.30;;;;;;4971714;28;88748;-67
2024/03/20 02:32:49;;;;;;;2.65;1.63;;;21.30;58.30;;;;;;4965888;28;87580;-64
2024/03/20 02:35:16;;;;;;;2.58;1.55;;;21.30;58.10;;;;;;4970639;28;86942;-65
2024/03/20 02:37:42;;;;;;;3.25;1.95;;;21.30;58.20;;;;;;4959811;28;88511;-68
2024/03/20 02:40:08;;;;;;;4.30;2.08;;;21.30;58.10;;;;;;4950124;28;87281;-64
2024/03/20 02:42:34;;;;;;;3.60;2.13;;;21.20;58.10;;;;;;4952839;28;86934;-64
2024/03/20 02:45:00;;;;;;;4.68;2.17;;;21.20;58.10;;;;;;4956643;28;86708;-64
2024/03/20 02:47:26;;;;;;;4.45;2.38;;;21.20;58.10;;;;;;4955189;28;88167;-65
2024/03/20 02:49:56;;;;;;;4.07;1.90;;;21.20;58.20;;;;;;4947237;28;88396;-67
2024/03/20 02:52:22;;;;;;;2.80;2.17;;;21.20;58.30;;;;;;4948980;28;88185;-65
2024/03/20 02:54:47;;;;;;;2.53;1.58;;;21.20;58.10;;;;;;4955394;28;87569;-67
2024/03/20 02:57:17;;;;;;;5.38;2.08;;;21.20;58.20;;;;;;4955817;28;87501;-66
2024/03/20 02:59:44;;;;;;;2.88;1.60;;;21.20;58.10;;;;;;4954552;28;87775;-66
2024/03/20 03:02:10;;;;;;;3.17;1.75;;;21.20;58.10;;;;;;4946409;28;87572;-64
2024/03/20 03:04:37;;;;;;;3.33;1.95;;;21.20;58.10;;;;;;4954078;28;87334;-64
2024/03/20 03:07:03;;;;;;;3.63;1.95;;;21.20;58.10;;;;;;4953632;28;88916;-65
2024/03/20 03:09:29;;;;;;;3.10;1.92;;;21.20;58.10;;;;;;4954341;28;88270;-64
2024/03/20 03:11:55;;;;;;;2.75;1.50;;;21.20;58.10;;;;;;4953710;28;86971;-63
2024/03/20 03:14:21;;;;;;;2.97;1.73;;;21.20;58.20;;;;;;4950218;28;87479;-64
2024/03/20 03:16:46;;;;;;;2.72;1.85;;;21.20;58.00;;;;;;4951788;28;91853;-64
2024/03/20 03:19:12;;;;;;;2.83;1.63;;;21.10;58.10;;;;;;4954575;28;89780;-65
2024/03/20 03:21:39;;;;;;;3.97;2.03;;;21.20;58.00;;;;;;4954336;28;87299;-63
2024/03/20 03:24:05;;;;;;;3.25;1.80;;;21.10;58.00;;;;;;4953626;28;89138;-65
2024/03/20 03:26:32;;;;;;;4.18;2.38;;;21.10;58.80;;;;;;4953521;28;86914;-63
2024/03/20 03:28:58;;;;;;;2.70;1.70;;;21.10;58.00;;;;;;4936524;28;88200;-65
2024/03/20 03:31:24;;;;;;;2.92;2.20;;;21.10;58.10;;;;;;4954177;28;86823;-64
2024/03/20 03:33:50;;;;;;;3.05;1.98;;;21.10;58.00;;;;;;4955760;28;86908;-65
2024/03/20 03:36:16;;;;;;;3.05;1.73;;;21.10;58.00;;;;;;4954538;28;87562;-65
2024/03/20 03:38:43;;;;;;;5.22;2.38;;;21.10;58.10;;;;;;4950416;28;88447;-64
2024/03/20 03:41:08;;;;;;;3.20;2.10;;;21.10;58.10;;;;;;4956878;28;88246;-65
2024/03/20 03:43:37;;;;;;;2.25;1.60;;;21.10;58.10;;;;;;4955181;28;87338;-64
2024/03/20 03:46:05;;;;;;;2.03;1.42;;;21.10;58.10;;;;;;4953690;28;88815;-63
2024/03/20 03:48:30;;;;;;;2.90;1.73;;;21.10;58.00;;;;;;4953683;28;88836;-64
2024/03/20 03:50:56;;;;;;;4.45;1.88;;;21.10;57.90;;;;;;4954158;28;87835;-64
2024/03/20 03:53:23;;;;;;;2.35;1.60;;;21.10;57.90;;;;;;4952422;28;87324;-64
2024/03/20 03:55:49;;;;;;;2.65;1.30;;;21.10;57.90;;;;;;4947348;28;88004;-66
2024/03/20 03:58:15;;;;;;;2.70;1.73;;;21.10;58.00;;;;;;4955346;28;87276;-66
2024/03/20 04:00:41;;;;;;;3.17;1.75;;;21.10;57.80;;;;;;4952861;28;87642;-64
2024/03/20 04:03:07;;;;;;;2.25;1.42;;;21.00;58.60;;;;;;4953023;28;87474;-67
2024/03/20 04:05:34;;;;;;;2.53;1.67;;;21.10;57.90;;;;;;4954350;28;89837;-63
2024/03/20 04:08:00;;;;;;;3.85;1.83;;;21.00;57.90;;;;;;4954008;28;89742;-65
2024/03/20 04:10:26;;;;;;;1.98;1.30;;;21.10;57.90;;;;;;4955007;28;87341;-64
2024/03/20 04:12:53;;;;;;;1.83;1.38;;;21.10;57.90;;;;;;4954963;28;87540;-64
2024/03/20 04:15:19;;;;;;;2.42;1.25;;;21.10;57.80;;;;;;4954177;28;88917;-65
2024/03/20 04:17:45;;;;;;;1.90;1.33;;;21.00;58.00;;;;;;4954002;28;88205;-64
2024/03/20 04:20:11;;;;;;;3.03;1.95;;;21.00;57.90;;;;;;4950336;28;87837;-64
2024/03/20 04:22:43;;;;;;;3.78;2.05;;;21.00;57.80;;;;;;4949537;28;87762;-65
2024/03/20 04:25:09;;;;;;;2.55;1.70;;;21.00;58.00;;;;;;4945407;28;89086;-64
2024/03/20 04:27:37;;;;;;;2.50;1.67;;;21.00;57.90;;;;;;4953831;28;87863;-67
2024/03/20 04:30:06;;;;;;;2.67;1.55;;;21.00;57.90;;;;;;4950556;28;88399;-67
2024/03/20 04:32:32;;;;;;;3.13;1.55;;;21.00;58.00;;;;;;4949783;28;87565;-64
2024/03/20 04:34:59;;;;;;;3.95;2.28;;;21.00;57.90;;;;;;4952469;28;88443;-65
2024/03/20 04:37:26;;;;;;;1.73;1.30;;;21.00;57.80;;;;;;4952253;28;88916;-65
2024/03/20 04:39:53;;;;;;;3.53;1.67;;;21.00;57.90;;;;;;4950839;28;87314;-65
2024/03/20 04:42:19;;;;;;;2.92;1.45;;;21.00;57.70;;;;;;4952653;28;88896;-67
2024/03/20 04:44:49;;;;;;;2.95;1.27;;;20.90;57.70;;;;;;4947080;28;87672;-65
2024/03/20 04:47:16;;;;;;;2.20;1.30;;;20.90;57.90;;;;;;4953055;28;88387;-63
2024/03/20 04:49:44;;;;;;;5.95;1.80;;;21.00;57.90;;;;;;4952015;28;87102;-65
2024/03/20 04:52:10;;;;;;;2.50;1.45;;;21.00;58.10;;;;;;4949459;28;87539;-66
2024/03/20 04:54:36;;;;;;;2.47;1.60;;;21.00;57.90;;;;;;4953647;28;88650;-67
2024/03/20 04:57:07;;;;;;;2.35;1.48;;;20.90;57.90;;;;;;4948939;28;88711;-66
2024/03/20 04:59:36;;;;;;;2.50;1.50;;;20.90;57.70;;;;;;4950199;28;87385;-64
2024/03/20 05:02:04;;;;;;;2.05;1.50;;;20.90;57.70;;;;;;4931833;28;87537;-65
2024/03/20 05:04:31;;;;;;;1.75;1.08;;;20.90;57.80;;;;;;4939510;28;88174;-63
2024/03/20 05:06:57;;;;;;;1.48;1.20;;;21.00;57.70;;;;;;4952115;28;87858;-66
2024/03/20 05:09:27;;;;;;;2.38;1.88;;;20.90;57.80;;;;;;4954255;28;87374;-65
2024/03/20 05:11:54;;;;;;;1.65;1.40;;;20.90;57.60;;;;;;4948691;28;86427;-67
2024/03/20 05:14:20;;;;;;;1.75;1.27;;;20.90;57.60;;;;;;4950444;28;89349;-65
2024/03/20 05:16:46;;;;;;;2.78;1.70;;;20.90;57.60;;;;;;4947771;28;88615;-65
2024/03/20 05:19:16;;;;;;;3.35;1.92;;;20.90;57.60;;;;;;4946274;28;88576;-64
2024/03/20 05:21:45;;;;;;;3.03;1.70;;;20.90;57.60;;;;;;4952457;28;89714;-66
2024/03/20 05:24:13;;;;;;;2.83;1.50;;;20.90;57.70;;;;;;4949837;28;88839;-65
2024/03/20 05:26:41;;;;;;;2.00;1.50;;;20.90;57.70;;;;;;4951064;28;87859;-64
2024/03/20 05:29:09;;;;;;;3.00;1.73;;;20.90;57.50;;;;;;4947936;28;87312;-63
2024/03/20 05:31:42;;;;;;;2.10;1.60;;;20.80;57.60;;;;;;4951310;28;87788;-65
2024/03/20 05:34:10;;;;;;;2.92;1.80;;;20.80;57.60;;;;;;4950757;28;88919;-64
2024/03/20 05:36:39;;;;;;;1.40;1.27;;;20.80;57.60;;;;;;4951881;28;87664;-64
2024/03/20 05:39:11;;;;;;;1.58;1.48;;;20.80;57.50;;;;;;4951705;28;86883;-63
2024/03/20 05:41:39;;;;;;;3.05;1.70;;;20.80;57.40;;;;;;4952614;28;87149;-64
2024/03/20 05:44:09;;;;;;;2.35;1.38;;;20.80;58.10;;;;;;4951972;28;89903;-66
2024/03/20 05:46:35;;;;;;;1.95;1.45;;;20.80;57.60;;;;;;4929280;28;89459;-68
2024/03/20 05:49:02;;;;;;;2.50;1.35;;;20.80;57.60;;;;;;4924656;28;87336;-64
2024/03/20 05:51:30;;;;;;;1.42;1.33;;;20.80;57.60;;;;;;4951973;28;87746;-66
2024/03/20 05:53:55;;;;;;;2.00;1.52;;;20.80;57.60;;;;;;4948363;28;88969;-65
2024/03/20 05:56:22;;;;;;;2.15;1.30;;;20.80;57.50;;;;;;4944612;28;88775;-65
2024/03/20 05:58:51;;;;;;;2.47;1.20;;;20.80;57.60;;;;;;4946159;28;87413;-63
2024/03/20 06:01:17;;;;;;;3.38;1.38;;;20.80;57.80;;;;;;4953241;28;86771;-65
2024/03/20 06:03:43;;;;;;;1.85;1.45;;;20.80;57.50;;;;;;4952487;28;87938;-65
2024/03/20 06:06:09;;;;;;;1.77;1.42;;;20.80;57.60;;;;;;4964165;28;87779;-65
2024/03/20 06:08:36;;;;;;;2.22;1.38;;;20.80;57.60;;;;;;4958096;28;87867;-63
2024/03/20 06:11:03;;;;;;;1.85;1.40;;;20.80;57.70;;;;;;4953184;28;87639;-63
2024/03/20 06:13:33;;;;;;;2.47;1.27;;;20.80;57.60;;;;;;4968064;28;88903;-64
2024/03/20 06:16:00;;;;;;;1.85;1.27;;;20.80;57.50;;;;;;4968801;28;87961;-64
2024/03/20 06:18:26;;;;;;;1.80;1.58;;;20.80;57.20;;;;;;4956909;28;87474;-67
2024/03/20 06:20:52;;;;;;;3.20;1.75;;;20.80;57.20;;;;;;4952204;28;87853;-67
2024/03/20 06:23:17;;;;;;;2.50;1.20;;;20.80;57.50;;;;;;4955933;28;87746;-65
2024/03/20 06:25:43;;;;;;;2.40;1.45;;;20.80;57.70;;;;;;4952607;28;89217;-65
2024/03/20 06:28:10;;;;;;;2.85;1.27;;;20.80;57.80;;;;;;4953384;28;87052;-66
2024/03/20 06:30:39;;;;;;;2.03;1.40;;;20.80;57.80;;;;;;4956716;28;87477;-70
2024/03/20 06:33:05;;;;;;;;;;;20.90;57.90;;;;;;4953458;28;90667;-67
2024/03/20 06:35:32;;;;;;;1.98;1.17;;;21.00;58.00;;;;;;4952495;28;89255;-67
2024/03/20 06:38:06;;;;;;;2.10;1.15;;;21.10;57.80;;;;;;4964806;28;86861;-65
2024/03/20 06:40:32;;;;;;;10.73;3.05;;;21.30;57.70;;;;;;4966385;28;87628;-65
2024/03/20 06:43:02;;;;;;;2.30;1.50;;;21.40;56.90;;;;;;4969695;28;87504;-67
2024/03/20 06:46:05;;;;;;;4.03;1.70;;;21.60;56.50;;;;;;4974554;28;87949;-65
2024/03/20 06:48:59;;;;;;;3.13;1.63;;;21.70;56.10;;;;;;4982751;28;88064;-62
2024/03/20 06:51:25;;;;;;;3.05;1.70;;;21.80;55.70;;;;;;4984759;28;91675;-64
2024/03/20 06:53:51;;;;;;;4.15;1.77;;;21.80;55.50;;;;;;4980943;28;87557;-65
2024/03/20 06:56:19;;;;;;;10.32;3.55;;;21.80;55.40;;;;;;4967035;28;87866;-66
2024/03/20 06:58:45;;;;;;;6.68;2.53;;;21.90;55.10;;;;;;4973085;28;88467;-67
2024/03/20 07:01:11;;;;;;;9.73;2.22;;;21.90;55.10;;;;;;4973759;28;87569;-65
2024/03/20 07:03:37;;;;;;;7.15;2.28;;;21.90;54.90;;;;;;4971815;28;89252;-64
2024/03/20 07:06:05;;;;;;;10.80;4.00;;;21.90;54.70;;;;;;4970866;28;88985;-66
2024/03/20 07:08:33;;;;;;;6.13;1.90;;;22.00;54.70;;;;;;4969968;28;87559;-64
2024/03/20 07:10:59;;;;;;;10.38;3.95;;;22.10;54.80;;;;;;4972109;28;87255;-62
2024/03/20 07:13:25;;;;;;;9.02;2.85;;;22.10;54.30;;;;;;4970722;28;87441;-65
2024/03/20 07:15:51;;;;;;;13.80;2.75;;;22.10;54.40;;;;;;4971635;28;89092;-70
2024/03/20 07:18:17;;;;;;;13.30;4.00;;;22.10;54.20;;;;;;4959417;28;87274;-64
2024/03/20 07:20:43;;;;;;;10.68;3.13;;;22.10;54.20;;;;;;4951542;28;88142;-64
2024/03/20 07:23:10;;;;;;;14.88;4.57;;;22.20;54.30;;;;;;4952352;28;89074;-69
2024/03/20 07:25:35;;;;;;;17.80;3.45;;;22.20;54.30;;;;;;4972096;28;90167;-67
2024/03/20 07:28:01;;;;;;;12.77;3.25;;;22.20;54.40;;;;;;4967488;28;87646;-64
2024/03/20 07:30:29;;;;;;;12.85;3.10;;;22.20;54.30;;;;;;4954353;28;87308;-65
2024/03/20 07:32:54;;;;;;;11.68;3.70;;;22.20;54.40;;;;;;4952696;28;89069;-64
2024/03/20 07:35:29;;;;;;;12.35;2.78;;;22.20;54.30;;;;;;4954413;28;87818;-63
2024/03/20 07:37:56;;;;;;;11.15;3.15;;;22.30;54.50;;;;;;4953927;28;87470;-62
2024/03/20 07:40:24;;;;;;;9.98;2.75;;;22.30;55.20;;;;;;4953062;28;87757;-62
2024/03/20 07:42:50;;;;;;;9.90;3.15;;;22.30;54.50;;;;;;4952263;28;88111;-61
2024/03/20 07:45:16;;;;;;;14.80;3.53;;;22.30;54.50;;;;;;4954242;28;87640;-62
2024/03/20 07:47:42;;;;;;;9.15;3.35;;;22.40;54.50;;;;;;4952862;28;88901;-63
2024/03/20 07:50:10;;;;;;;11.98;3.25;;;22.40;54.50;;;;;;4952414;28;87909;-64
2024/03/20 07:52:37;;;;;;;9.70;3.53;;;22.40;54.60;;;;;;4951836;28;88711;-63
2024/03/20 07:55:05;;;;;;;8.20;3.20;;;22.40;54.50;;;;;;4935487;28;87394;-62
2024/03/20 07:57:32;;;;;;;11.77;2.90;;;22.40;54.60;;;;;;4955885;28;87477;-63
2024/03/20 07:59:57;;;;;;;6.63;2.40;;;22.40;54.60;;;;;;4953931;28;87295;-63
2024/03/20 08:02:25;;;;;;;12.82;3.80;;;22.40;54.60;;;;;;4952337;28;88117;-63
2024/03/20 08:04:51;;;;;;;7.30;3.40;;;22.40;54.70;;;;;;4953038;28;88569;-62
2024/03/20 08:07:17;;;;;;;8.25;2.53;;;22.40;54.70;;;;;;4952636;28;87628;-62
2024/03/20 08:09:43;;;;;;;9.52;3.88;;;22.40;54.90;;;;;;4952553;28;88670;-63
2024/03/20 08:12:09;;;;;;;22.70;3.85;;;22.40;54.90;;;;;;4953169;28;89039;-64
2024/03/20 08:14:35;;;;;;;8.05;3.58;;;22.40;54.90;;;;;;4953430;28;89301;-63
2024/03/20 08:17:00;;;;;;;11.93;2.65;;;22.40;54.90;;;;;;4952431;28;87271;-63
2024/03/20 08:19:27;;;;;;;7.53;2.65;;;22.40;54.90;;;;;;4952695;28;86990;-63
2024/03/20 08:21:53;;;;;;;13.50;3.65;;;22.40;54.90;;;;;;4952455;28;88496;-62
2024/03/20 08:24:19;;;;;;;12.77;3.47;;;22.40;55.10;;;;;;4951323;28;89056;-65
2024/03/20 08:26:45;;;;;;;13.88;3.95;;;22.40;55.40;;;;;;4943386;28;87052;-64
2024/03/20 08:29:11;;;;;;;9.45;3.25;;;22.40;55.30;;;;;;4950639;28;86837;-63
2024/03/20 08:31:38;;;;;;;9.90;3.53;;;22.40;55.20;;;;;;4951079;28;87123;-64
2024/03/20 08:34:09;;;;;;;11.35;3.40;;;22.40;55.00;;;;;;4950715;28;87843;-65
2024/03/20 08:36:37;;;;;;;10.27;2.70;;;22.40;55.10;;;;;;4952467;28;87995;-64
2024/03/20 08:39:06;;;;;;;10.05;3.28;;;22.50;55.00;;;;;;4950408;28;87085;-64
2024/03/20 08:41:32;;;;;;;12.05;3.63;;;22.40;54.90;;;;;;4941803;28;89203;-64
2024/03/20 08:44:01;;;;;;;8.82;2.40;;;22.40;54.80;;;;;;4951491;28;87448;-63
2024/03/20 08:46:28;;;;;;;;;;;22.50;54.70;;;;;;4951577;28;87238;-63
2024/03/20 08:48:54;;;;;;;12.70;3.10;;;22.50;54.60;;;;;;4955059;28;86962;-63
2024/03/20 08:51:20;;;;;;;11.70;3.20;;;22.50;54.70;;;;;;4952906;28;88164;-60
2024/03/20 08:53:46;;;;;;;9.57;2.88;;;22.50;54.60;;;;;;4956832;28;87870;-64
2024/03/20 08:56:12;;;;;;;5.55;2.80;;;22.50;54.70;;;;;;4953346;28;87427;-62
2024/03/20 08:58:38;;;;;;;13.25;3.55;;;22.50;54.80;;;;;;4952803;28;87960;-64
2024/03/20 09:01:04;;;;;;;12.35;4.10;;;22.60;54.80;;;;;;4950486;28;88540;-63
2024/03/20 09:03:30;;;;;;;7.65;2.63;;;22.60;54.80;;;;;;4951726;28;88745;-63
2024/03/20 09:05:56;;;;;;;9.23;2.67;;;22.60;54.70;;;;;;4954350;28;87011;-63
2024/03/20 09:08:22;;;;;;;10.63;3.67;;;22.60;54.80;;;;;;4951347;28;87300;-63
2024/03/20 09:10:49;;;;;;;7.97;3.13;;;22.60;55.00;;;;;;4948721;28;88255;-64
2024/03/20 09:13:15;;;;;;;10.63;2.97;;;22.60;55.10;;;;;;4951664;28;89074;-63
2024/03/20 09:15:41;;;;;;;9.10;3.83;;;22.60;55.20;;;;;;4953868;28;87481;-65
2024/03/20 09:18:06;;;;;;;7.40;2.42;;;22.60;55.10;;;;;;4953088;28;87184;-63
2024/03/20 09:20:32;;;;;;;10.45;3.45;;;22.60;55.20;;;;;;4944521;28;89657;-62
2024/03/20 09:23:00;;;;;;;16.27;3.55;;;22.70;55.30;;;;;;4945708;28;88767;-65
2024/03/20 09:25:27;;;;;;;9.63;2.90;;;22.70;56.00;;;;;;4955160;28;88395;-62
2024/03/20 09:27:52;;;;;;;10.63;3.65;;;22.70;55.60;;;;;;4950820;28;87855;-62
2024/03/20 09:30:20;;;;;;;10.73;2.70;;;22.70;55.50;;;;;;4952720;28;88207;-63
2024/03/20 09:32:48;;;;;;;8.85;3.35;;;22.60;56.00;;;;;;4948873;28;88635;-63
2024/03/20 09:35:16;;;;;;;7.82;2.58;;;22.70;55.80;;;;;;4950975;28;87563;-64
2024/03/20 09:37:41;;;;;;;7.65;2.67;;;22.60;55.90;;;;;;4967180;28;87383;-63
2024/03/20 09:40:10;;;;;;;7.75;3.38;;;22.70;56.20;;;;;;4957301;28;88414;-63
2024/03/20 09:42:39;;;;;;;5.70;2.33;;;22.70;56.20;;;;;;4953843;28;87348;-62
2024/03/20 09:45:07;;;;;;;9.35;3.70;;;22.70;56.20;;;;;;4950750;28;87071;-62
2024/03/20 09:47:33;;;;;;;11.80;2.53;;;22.60;56.40;;;;;;4949998;28;87333;-63
2024/03/20 09:49:59;;;;;;;14.00;2.95;;;22.60;56.70;;;;;;4947244;28;89687;-63
2024/03/20 09:52:28;;;;;;;7.88;2.70;;;22.70;56.90;;;;;;4949393;28;88711;-63
2024/03/20 09:54:55;;;;;;;8.85;2.63;;;22.70;56.80;;;;;;4950274;28;87253;-62
2024/03/20 09:57:27;;;;;;;8.25;3.08;;;22.70;56.90;;;;;;4968491;28;88529;-63
2024/03/20 09:59:53;;;;;;;8.73;3.10;;;22.70;57.10;;;;;;4951339;28;88543;-62
2024/03/20 10:02:22;;;;;;;7.72;2.70;;;22.80;57.10;;;;;;4971223;28;87407;-64
2024/03/20 10:04:51;;;;;;;9.77;2.70;;;22.80;56.80;;;;;;4952369;28;87641;-63
2024/03/20 10:07:16;;;;;;;11.25;3.67;;;22.80;56.80;;;;;;4942921;28;87119;-62
2024/03/20 10:09:44;;;;;;;6.15;2.17;;;22.70;57.00;;;;;;4946023;28;88916;-62
2024/03/20 10:12:13;;;;;;;6.85;2.80;;;22.70;57.20;;;;;;4950074;28;89158;-64
2024/03/20 10:14:39;;;;;;;3.90;2.50;;;22.70;57.30;;;;;;4944153;28;88461;-62
2024/03/20 10:17:22;;;;;;;9.07;4.07;;;22.80;57.30;;;;;;4949741;28;87309;-63
2024/03/20 10:19:48;;;;;;;6.53;2.55;;;22.80;57.10;;;;;;4948778;28;88171;-63
2024/03/20 10:22:33;;;;;;;6.50;2.72;;;22.80;57.10;;;;;;4952616;28;87792;-63
2024/03/20 10:24:58;;;;;;;8.25;2.70;;;22.70;57.20;;;;;;4951034;28;87462;-62
2024/03/20 10:27:25;;;;;;;8.15;2.67;;;22.70;57.20;;;;;;4953032;28;87330;-62
2024/03/20 10:29:53;;;;;;;7.50;1.95;;;22.80;57.20;;;;;;4950037;28;88652;-62
2024/03/20 10:32:25;;;;;;;6.20;2.72;;;22.80;57.20;;;;;;4947153;28;87864;-63
2024/03/20 10:34:55;;;;;;;8.25;2.90;;;22.80;57.20;;;;;;4953062;28;87949;-63
2024/03/20 10:37:21;;;;;;;;;;;22.80;57.30;;;;;;4968648;28;87701;-63
2024/03/20 10:39:48;;;;;;;9.48;3.58;;;22.80;57.10;;;;;;4986093;28;91632;-64
2024/03/20 10:42:14;;;;;;;6.35;2.38;;;22.70;57.20;;;;;;4969500;28;92058;-63
2024/03/20 10:44:41;;;;;;;6.53;2.78;;;22.80;57.40;;;;;;4970425;28;87341;-62
2024/03/20 10:47:09;;;;;;;6.78;2.42;;;22.80;57.20;;;;;;4968380;28;87883;-63
2024/03/20 10:49:35;;;;;;;7.07;3.38;;;22.80;57.20;;;;;;4969175;28;87991;-63
2024/03/20 10:52:01;;;;;;;7.30;2.55;;;22.80;57.40;;;;;;4968417;28;87212;-63
2024/03/20 10:54:27;;;;;;;7.68;3.00;;;22.70;57.20;;;;;;4970906;28;87184;-64
2024/03/20 10:56:57;;;;;;;10.70;2.40;;;22.70;57.50;;;;;;4969978;28;86629;-63
2024/03/20 10:59:23;;;;;;;7.97;2.65;;;22.80;57.40;;;;;;4970470;28;87962;-63
2024/03/20 11:02:06;;;;;;;6.95;3.08;;;22.80;57.30;;;;;;4968095;28;88399;-64
2024/03/20 11:04:36;;;;;;;7.95;3.35;;;22.80;57.20;;;;;;4955376;28;88172;-65
2024/03/20 11:07:23;;;;;;;9.13;3.38;;;22.80;57.20;;;;;;4951141;28;88201;-63
2024/03/20 11:09:53;;;;;;;5.93;2.53;;;22.70;57.40;;;;;;4970665;28;88152;-63
2024/03/20 11:12:33;;;;;;;7.05;2.42;;;22.80;57.50;;;;;;4955747;28;87931;-63
2024/03/20 11:15:07;;;;;;;6.13;2.58;;;22.80;57.30;;;;;;4953758;28;87705;-62
2024/03/20 11:17:36;;;;;;;5.35;2.45;;;22.80;57.40;;;;;;4953110;28;87893;-64
2024/03/20 11:20:04;;;;;;;7.80;3.03;;;22.80;57.40;;;;;;4952660;28;89447;-64
2024/03/20 11:22:32;;;;;;;6.20;2.33;;;22.70;57.40;;;;;;4954056;28;88723;-64
2024/03/20 11:24:58;;;;;;;7.55;2.40;;;22.70;57.60;;;;;;4952497;28;87132;-62
2024/03/20 11:27:27;;;;;;;4.70;2.05;;;22.80;57.60;;;;;;4956216;28;87443;-63
2024/03/20 11:30:01;;;;;;;6.50;2.53;;;22.80;57.30;;;;;;4950193;28;89764;-63
2024/03/20 11:32:27;;;;;;;8.00;3.50;;;22.80;57.50;;;;;;4966748;28;89281;-64
2024/03/20 11:34:53;;;;;;;5.05;2.75;;;22.80;57.40;;;;;;4949442;28;87344;-66
2024/03/20 11:37:19;;;;;;;8.43;3.08;;;22.80;57.20;;;;;;4961406;28;88683;-62
2024/03/20 11:39:46;;;;;;;7.60;2.90;;;22.80;57.30;;;;;;4951989;28;88712;-62
2024/03/20 11:42:18;;;;;;;7.47;2.95;;;22.80;57.30;;;;;;4945643;28;87985;-64
2024/03/20 11:44:45;;;;;;;8.80;2.65;;;22.80;57.40;;;;;;4931014;28;87386;-64
2024/03/20 11:47:15;;;;;;;6.80;2.90;;;22.80;57.80;;;;;;4938402;28;87154;-63
2024/03/20 11:49:42;;;;;;;7.13;2.80;;;22.80;58.00;;;;;;4951298;28;89962;-63
2024/03/20 11:52:14;;;;;;;8.60;3.00;;;22.90;58.00;;;;;;4942016;28;87455;-65
2024/03/20 11:54:41;;;;;;;6.97;2.28;;;22.90;58.20;;;;;;4945419;28;88128;-63
2024/03/20 11:57:15;;;;;;;7.90;2.83;;;22.90;58.60;;;;;;4944376;28;87460;-63
2024/03/20 11:59:50;;;;;;;5.00;2.28;;;22.80;58.80;;;;;;4943160;28;90556;-62
2024/03/20 12:02:17;;;;;;;4.85;2.00;;;22.80;58.80;;;;;;4947065;28;90378;-62
2024/03/20 12:04:43;;;;;;;5.28;2.60;;;22.80;58.80;;;;;;4938683;28;87605;-62
2024/03/20 12:07:26;;;;;;;4.38;2.58;;;22.80;58.60;;;;;;4946920;28;87277;-63
2024/03/20 12:09:51;;;;;;;5.93;2.10;;;22.90;58.60;;;;;;4945079;28;87459;-63
2024/03/20 12:12:19;;;;;;;6.45;2.53;;;22.90;58.80;;;;;;4952239;28;90056;-64
2024/03/20 12:14:45;;;;;;;11.93;3.63;;;22.90;59.00;;;;;;4950850;28;87532;-63
2024/03/20 12:17:11;;;;;;;6.53;2.17;;;22.90;59.30;;;;;;4969857;28;87817;-63
2024/03/20 12:19:37;;;;;;;6.57;2.20;;;22.90;59.30;;;;;;4942927;28;89036;-64
2024/03/20 12:22:12;;;;;;;11.57;2.83;;;23.00;59.20;;;;;;4948015;28;91059;-65
2024/03/20 12:24:37;;;;;;;7.00;2.92;;;22.90;59.30;;;;;;4945445;28;87013;-63
2024/03/20 12:27:05;;;;;;;9.18;2.85;;;22.90;59.50;;;;;;4945117;28;87163;-65
2024/03/20 12:29:31;;;;;;;8.98;3.35;;;22.90;59.60;;;;;;4963413;28;87979;-63
2024/03/20 12:31:57;;;;;;;8.25;2.50;;;22.90;59.50;;;;;;4970437;28;89146;-63
2024/03/20 12:34:24;;;;;;;7.05;2.67;;;22.90;59.50;;;;;;4972397;28;87066;-64
2024/03/20 12:36:49;;;;;;;6.53;2.90;;;23.00;59.40;;;;;;4971093;28;86792;-64
2024/03/20 12:39:15;;;;;;;5.55;1.95;;;22.90;58.60;;;;;;4970451;28;91685;-69
2024/03/20 12:45:07;;;;;;;7.28;2.42;;;22.90;58.70;;;;;;4948996;28;88279;-68
2024/03/20 12:47:33;;;;;;;8.43;2.67;;;22.90;58.70;;;;;;4944235;28;87517;-66
2024/03/20 12:49:59;;;;;;;5.80;2.53;;;22.90;59.00;;;;;;4934163;28;89384;-67